sensor_id;sensor_type;location;lat;lon;timestamp;P1;durP1;ratioP1;P2;durP2;ratioP2
5823;SDS011;2938;52.254;12.988;2022-10-17T00:01:04;7.53;;;4.60;;
5823;SDS011;2938;52.254;12.988;2022-10-17T00:03:30;5.88;;;4.25;;
5823;SDS011;2938;52.254;12.988;2022-10-17T00:05:55;11.52;;;4.05;;
5823;SDS011;2938;52.254;12.988;2022-10-17T00:08:20;4.13;;;3.20;;
5823;SDS011;2938;52.254;12.988;2022-10-17T00:10:54;5.97;;;3.42;;
5823;SDS011;2938;52.254;12.988;2022-10-17T00:13:21;6.63;;;4.15;;
5823;SDS011;2938;52.254;12.988;2022-10-17T00:15:47;4.80;;;3.90;;
5823;SDS011;2938;52.254;12.988;2022-10-17T00:18:12;8.65;;;3.67;;
5823;SDS011;2938;52.254;12.988;2022-10-17T00:20:37;7.40;;;3.75;;
5823;SDS011;2938;52.254;12.988;2022-10-17T00:23:03;5.35;;;3.33;;
5823;SDS011;2938;52.254;12.988;2022-10-17T00:25:28;4.68;;;3.60;;
5823;SDS011;2938;52.254;12.988;2022-10-17T00:27:53;4.22;;;3.63;;
5823;SDS011;2938;52.254;12.988;2022-10-17T00:30:19;7.47;;;3.78;;
5823;SDS011;2938;52.254;12.988;2022-10-17T00:32:44;7.68;;;3.22;;
5823;SDS011;2938;52.254;12.988;2022-10-17T00:35:09;6.30;;;3.83;;
5823;SDS011;2938;52.254;12.988;2022-10-17T00:37:35;9.65;;;3.67;;
5823;SDS011;2938;52.254;12.988;2022-10-17T00:40:00;4.78;;;3.30;;
5823;SDS011;2938;52.254;12.988;2022-10-17T00:42:26;4.35;;;3.35;;
5823;SDS011;2938;52.254;12.988;2022-10-17T00:45:06;9.10;;;4.70;;
5823;SDS011;2938;52.254;12.988;2022-10-17T00:47:37;4.55;;;4.13;;
5823;SDS011;2938;52.254;12.988;2022-10-17T00:50:03;6.85;;;4.45;;
5823;SDS011;2938;52.254;12.988;2022-10-17T00:52:29;15.05;;;4.30;;
5823;SDS011;2938;52.254;12.988;2022-10-17T00:54:59;8.88;;;4.53;;
5823;SDS011;2938;52.254;12.988;2022-10-17T00:57:27;11.80;;;4.20;;
5823;SDS011;2938;52.254;12.988;2022-10-17T00:59:55;11.95;;;4.47;;
5823;SDS011;2938;52.254;12.988;2022-10-17T01:02:22;4.60;;;4.20;;
5823;SDS011;2938;52.254;12.988;2022-10-17T01:04:49;11.00;;;5.13;;
5823;SDS011;2938;52.254;12.988;2022-10-17T01:07:16;10.68;;;4.90;;
5823;SDS011;2938;52.254;12.988;2022-10-17T01:09:42;11.35;;;4.63;;
5823;SDS011;2938;52.254;12.988;2022-10-17T01:18:10;5.78;;;4.32;;
5823;SDS011;2938;52.254;12.988;2022-10-17T01:23:41;11.18;;;5.75;;
5823;SDS011;2938;52.254;12.988;2022-10-17T01:26:27;11.45;;;4.57;;
5823;SDS011;2938;52.254;12.988;2022-10-17T01:29:12;9.18;;;4.63;;
5823;SDS011;2938;52.254;12.988;2022-10-17T01:35:08;5.97;;;3.97;;
5823;SDS011;2938;52.254;12.988;2022-10-17T01:37:43;4.97;;;3.47;;
5823;SDS011;2938;52.254;12.988;2022-10-17T01:40:14;7.43;;;3.70;;
5823;SDS011;2938;52.254;12.988;2022-10-17T01:42:58;5.18;;;4.43;;
5823;SDS011;2938;52.254;12.988;2022-10-17T01:45:32;9.40;;;5.28;;
5823;SDS011;2938;52.254;12.988;2022-10-17T01:48:07;6.72;;;5.13;;
5823;SDS011;2938;52.254;12.988;2022-10-17T01:50:37;7.50;;;4.38;;
5823;SDS011;2938;52.254;12.988;2022-10-17T01:53:06;7.68;;;4.45;;
5823;SDS011;2938;52.254;12.988;2022-10-17T01:55:35;5.72;;;4.82;;
5823;SDS011;2938;52.254;12.988;2022-10-17T01:58:09;6.30;;;4.32;;
5823;SDS011;2938;52.254;12.988;2022-10-17T02:00:37;7.05;;;5.03;;
5823;SDS011;2938;52.254;12.988;2022-10-17T02:03:05;9.70;;;4.43;;
5823;SDS011;2938;52.254;12.988;2022-10-17T02:05:32;7.32;;;4.60;;
5823;SDS011;2938;52.254;12.988;2022-10-17T02:08:00;11.88;;;5.10;;
5823;SDS011;2938;52.254;12.988;2022-10-17T02:10:35;5.93;;;5.32;;
5823;SDS011;2938;52.254;12.988;2022-10-17T02:13:08;5.20;;;4.57;;
5823;SDS011;2938;52.254;12.988;2022-10-17T02:21:14;11.43;;;4.00;;
5823;SDS011;2938;52.254;12.988;2022-10-17T02:23:50;9.95;;;5.80;;
5823;SDS011;2938;52.254;12.988;2022-10-17T02:26:19;10.68;;;4.43;;
5823;SDS011;2938;52.254;12.988;2022-10-17T02:31:38;5.93;;;3.78;;
5823;SDS011;2938;52.254;12.988;2022-10-17T02:34:07;5.55;;;4.85;;
5823;SDS011;2938;52.254;12.988;2022-10-17T02:36:37;10.63;;;4.75;;
5823;SDS011;2938;52.254;12.988;2022-10-17T02:39:04;7.05;;;4.82;;
5823;SDS011;2938;52.254;12.988;2022-10-17T02:41:30;5.97;;;4.90;;
5823;SDS011;2938;52.254;12.988;2022-10-17T02:43:56;13.20;;;5.45;;
5823;SDS011;2938;52.254;12.988;2022-10-17T02:46:22;7.72;;;4.57;;
5823;SDS011;2938;52.254;12.988;2022-10-17T02:48:52;6.70;;;4.13;;
5823;SDS011;2938;52.254;12.988;2022-10-17T02:51:27;8.10;;;4.60;;
5823;SDS011;2938;52.254;12.988;2022-10-17T02:54:08;5.47;;;4.97;;
5823;SDS011;2938;52.254;12.988;2022-10-17T02:56:40;5.68;;;5.07;;
5823;SDS011;2938;52.254;12.988;2022-10-17T02:59:08;5.88;;;5.28;;
5823;SDS011;2938;52.254;12.988;2022-10-17T03:01:36;8.73;;;5.43;;
5823;SDS011;2938;52.254;12.988;2022-10-17T03:04:09;5.95;;;5.35;;
5823;SDS011;2938;52.254;12.988;2022-10-17T03:06:36;10.65;;;4.88;;
5823;SDS011;2938;52.254;12.988;2022-10-17T03:09:02;7.18;;;4.55;;
5823;SDS011;2938;52.254;12.988;2022-10-17T03:11:27;6.82;;;5.40;;
5823;SDS011;2938;52.254;12.988;2022-10-17T03:13:53;7.88;;;5.32;;
5823;SDS011;2938;52.254;12.988;2022-10-17T03:16:18;5.32;;;4.82;;
5823;SDS011;2938;52.254;12.988;2022-10-17T03:18:43;8.35;;;6.15;;
5823;SDS011;2938;52.254;12.988;2022-10-17T03:21:08;6.78;;;5.70;;
5823;SDS011;2938;52.254;12.988;2022-10-17T03:23:34;12.13;;;5.95;;
5823;SDS011;2938;52.254;12.988;2022-10-17T03:26:05;6.93;;;6.18;;
5823;SDS011;2938;52.254;12.988;2022-10-17T03:28:31;9.50;;;5.72;;
5823;SDS011;2938;52.254;12.988;2022-10-17T03:30:56;7.07;;;6.38;;
5823;SDS011;2938;52.254;12.988;2022-10-17T03:33:22;6.35;;;5.68;;
5823;SDS011;2938;52.254;12.988;2022-10-17T03:35:47;7.63;;;5.93;;
5823;SDS011;2938;52.254;12.988;2022-10-17T03:38:12;7.05;;;6.30;;
5823;SDS011;2938;52.254;12.988;2022-10-17T03:40:37;7.43;;;6.60;;
5823;SDS011;2938;52.254;12.988;2022-10-17T03:43:03;8.05;;;6.78;;
5823;SDS011;2938;52.254;12.988;2022-10-17T03:45:31;9.25;;;7.00;;
5823;SDS011;2938;52.254;12.988;2022-10-17T03:47:59;7.70;;;6.40;;
5823;SDS011;2938;52.254;12.988;2022-10-17T03:50:24;7.07;;;6.28;;
5823;SDS011;2938;52.254;12.988;2022-10-17T03:52:50;9.18;;;7.47;;
5823;SDS011;2938;52.254;12.988;2022-10-17T03:55:15;12.60;;;6.72;;
5823;SDS011;2938;52.254;12.988;2022-10-17T03:57:41;10.73;;;7.88;;
5823;SDS011;2938;52.254;12.988;2022-10-17T04:00:06;8.27;;;7.32;;
5823;SDS011;2938;52.254;12.988;2022-10-17T04:02:32;9.02;;;8.15;;
5823;SDS011;2938;52.254;12.988;2022-10-17T04:04:59;8.30;;;7.40;;
5823;SDS011;2938;52.254;12.988;2022-10-17T04:07:24;17.52;;;7.38;;
5823;SDS011;2938;52.254;12.988;2022-10-17T04:09:50;8.27;;;6.43;;
5823;SDS011;2938;52.254;12.988;2022-10-17T04:12:15;7.03;;;6.32;;
5823;SDS011;2938;52.254;12.988;2022-10-17T04:14:40;9.68;;;6.45;;
5823;SDS011;2938;52.254;12.988;2022-10-17T04:17:05;6.55;;;5.93;;
5823;SDS011;2938;52.254;12.988;2022-10-17T04:19:31;11.73;;;6.65;;
5823;SDS011;2938;52.254;12.988;2022-10-17T04:21:56;8.93;;;6.50;;
5823;SDS011;2938;52.254;12.988;2022-10-17T04:24:22;8.63;;;6.53;;
5823;SDS011;2938;52.254;12.988;2022-10-17T04:26:50;10.70;;;6.78;;
5823;SDS011;2938;52.254;12.988;2022-10-17T04:29:15;8.55;;;6.85;;
5823;SDS011;2938;52.254;12.988;2022-10-17T04:31:41;7.28;;;6.45;;
5823;SDS011;2938;52.254;12.988;2022-10-17T04:34:06;9.82;;;7.50;;
5823;SDS011;2938;52.254;12.988;2022-10-17T04:36:31;8.18;;;7.13;;
5823;SDS011;2938;52.254;12.988;2022-10-17T04:38:57;15.35;;;8.23;;
5823;SDS011;2938;52.254;12.988;2022-10-17T04:41:25;8.25;;;7.45;;
5823;SDS011;2938;52.254;12.988;2022-10-17T04:43:50;9.43;;;8.13;;
5823;SDS011;2938;52.254;12.988;2022-10-17T04:46:16;14.75;;;8.60;;
5823;SDS011;2938;52.254;12.988;2022-10-17T04:48:41;11.38;;;8.70;;
5823;SDS011;2938;52.254;12.988;2022-10-17T04:51:07;15.40;;;8.50;;
5823;SDS011;2938;52.254;12.988;2022-10-17T04:53:37;12.25;;;7.82;;
5823;SDS011;2938;52.254;12.988;2022-10-17T04:56:11;9.82;;;8.18;;
5823;SDS011;2938;52.254;12.988;2022-10-17T04:58:46;10.00;;;9.00;;
5823;SDS011;2938;52.254;12.988;2022-10-17T05:01:13;10.63;;;9.52;;
5823;SDS011;2938;52.254;12.988;2022-10-17T05:03:42;12.25;;;9.77;;
5823;SDS011;2938;52.254;12.988;2022-10-17T05:06:08;10.93;;;8.27;;
5823;SDS011;2938;52.254;12.988;2022-10-17T05:08:38;9.02;;;8.13;;
5823;SDS011;2938;52.254;12.988;2022-10-17T05:11:04;8.18;;;7.35;;
5823;SDS011;2938;52.254;12.988;2022-10-17T05:13:30;13.50;;;9.02;;
5823;SDS011;2938;52.254;12.988;2022-10-17T05:16:00;10.27;;;8.18;;
5823;SDS011;2938;52.254;12.988;2022-10-17T05:18:26;10.60;;;8.82;;
5823;SDS011;2938;52.254;12.988;2022-10-17T05:20:52;7.65;;;6.85;;
5823;SDS011;2938;52.254;12.988;2022-10-17T05:23:18;9.20;;;8.25;;
5823;SDS011;2938;52.254;12.988;2022-10-17T05:25:43;8.35;;;7.55;;
5823;SDS011;2938;52.254;12.988;2022-10-17T05:28:08;9.95;;;8.95;;
5823;SDS011;2938;52.254;12.988;2022-10-17T05:30:34;12.43;;;9.05;;
5823;SDS011;2938;52.254;12.988;2022-10-17T05:33:00;14.20;;;8.95;;
5823;SDS011;2938;52.254;12.988;2022-10-17T05:35:25;8.70;;;7.90;;
5823;SDS011;2938;52.254;12.988;2022-10-17T05:37:50;9.68;;;8.77;;
5823;SDS011;2938;52.254;12.988;2022-10-17T05:40:16;9.68;;;8.52;;
5823;SDS011;2938;52.254;12.988;2022-10-17T05:42:48;25.02;;;14.20;;
5823;SDS011;2938;52.254;12.988;2022-10-17T05:45:13;8.93;;;7.88;;
5823;SDS011;2938;52.254;12.988;2022-10-17T05:47:39;10.18;;;8.68;;
5823;SDS011;2938;52.254;12.988;2022-10-17T05:50:04;9.00;;;7.95;;
5823;SDS011;2938;52.254;12.988;2022-10-17T05:52:30;12.38;;;8.05;;
5823;SDS011;2938;52.254;12.988;2022-10-17T05:54:56;9.07;;;7.75;;
5823;SDS011;2938;52.254;12.988;2022-10-17T05:57:23;10.27;;;8.27;;
5823;SDS011;2938;52.254;12.988;2022-10-17T05:59:51;11.20;;;8.77;;
5823;SDS011;2938;52.254;12.988;2022-10-17T06:02:17;14.18;;;8.75;;
5823;SDS011;2938;52.254;12.988;2022-10-17T06:04:42;12.23;;;8.57;;
5823;SDS011;2938;52.254;12.988;2022-10-17T06:07:10;12.15;;;8.05;;
5823;SDS011;2938;52.254;12.988;2022-10-17T06:09:36;12.13;;;9.10;;
5823;SDS011;2938;52.254;12.988;2022-10-17T06:12:01;11.65;;;7.78;;
5823;SDS011;2938;52.254;12.988;2022-10-17T06:14:27;9.82;;;8.50;;
5823;SDS011;2938;52.254;12.988;2022-10-17T06:16:52;10.27;;;7.53;;
5823;SDS011;2938;52.254;12.988;2022-10-17T06:19:18;9.07;;;7.80;;
5823;SDS011;2938;52.254;12.988;2022-10-17T06:21:43;7.95;;;6.85;;
5823;SDS011;2938;52.254;12.988;2022-10-17T06:24:08;11.07;;;7.22;;
5823;SDS011;2938;52.254;12.988;2022-10-17T06:26:34;17.27;;;8.80;;
5823;SDS011;2938;52.254;12.988;2022-10-17T06:28:59;11.95;;;9.30;;
5823;SDS011;2938;52.254;12.988;2022-10-17T06:31:24;9.25;;;8.15;;
5823;SDS011;2938;52.254;12.988;2022-10-17T06:33:50;14.63;;;8.18;;
5823;SDS011;2938;52.254;12.988;2022-10-17T06:36:15;16.58;;;9.98;;
5823;SDS011;2938;52.254;12.988;2022-10-17T06:38:40;12.05;;;7.80;;
5823;SDS011;2938;52.254;12.988;2022-10-17T06:41:07;15.80;;;7.05;;
5823;SDS011;2938;52.254;12.988;2022-10-17T06:43:35;15.15;;;7.97;;
5823;SDS011;2938;52.254;12.988;2022-10-17T06:46:04;10.73;;;7.38;;
5823;SDS011;2938;52.254;12.988;2022-10-17T06:48:29;9.02;;;8.13;;
5823;SDS011;2938;52.254;12.988;2022-10-17T06:50:59;9.48;;;7.43;;
5823;SDS011;2938;52.254;12.988;2022-10-17T06:53:28;7.97;;;6.65;;
5823;SDS011;2938;52.254;12.988;2022-10-17T06:55:55;13.48;;;7.15;;
5823;SDS011;2938;52.254;12.988;2022-10-17T06:58:25;6.72;;;6.07;;
5823;SDS011;2938;52.254;12.988;2022-10-17T07:00:50;8.52;;;5.63;;
5823;SDS011;2938;52.254;12.988;2022-10-17T07:03:15;10.02;;;5.53;;
5823;SDS011;2938;52.254;12.988;2022-10-17T07:05:41;6.47;;;4.82;;
5823;SDS011;2938;52.254;12.988;2022-10-17T07:08:06;6.07;;;5.47;;
5823;SDS011;2938;52.254;12.988;2022-10-17T07:10:32;8.05;;;6.43;;
5823;SDS011;2938;52.254;12.988;2022-10-17T07:13:02;8.18;;;7.00;;
5823;SDS011;2938;52.254;12.988;2022-10-17T07:15:28;8.60;;;5.93;;
5823;SDS011;2938;52.254;12.988;2022-10-17T07:17:53;10.15;;;6.10;;
5823;SDS011;2938;52.254;12.988;2022-10-17T07:20:18;7.38;;;6.13;;
5823;SDS011;2938;52.254;12.988;2022-10-17T07:22:44;8.27;;;5.63;;
5823;SDS011;2938;52.254;12.988;2022-10-17T07:25:09;12.35;;;5.68;;
5823;SDS011;2938;52.254;12.988;2022-10-17T07:27:34;8.30;;;4.80;;
5823;SDS011;2938;52.254;12.988;2022-10-17T07:30:00;5.53;;;5.03;;
5823;SDS011;2938;52.254;12.988;2022-10-17T07:32:25;6.57;;;4.78;;
5823;SDS011;2938;52.254;12.988;2022-10-17T07:34:50;6.68;;;4.43;;
5823;SDS011;2938;52.254;12.988;2022-10-17T07:37:16;6.35;;;4.40;;
5823;SDS011;2938;52.254;12.988;2022-10-17T07:39:41;7.10;;;4.82;;
5823;SDS011;2938;52.254;12.988;2022-10-17T07:42:07;9.63;;;5.32;;
5823;SDS011;2938;52.254;12.988;2022-10-17T07:44:32;5.72;;;3.90;;
5823;SDS011;2938;52.254;12.988;2022-10-17T07:46:57;4.85;;;3.22;;
5823;SDS011;2938;52.254;12.988;2022-10-17T07:49:23;3.78;;;3.33;;
5823;SDS011;2938;52.254;12.988;2022-10-17T07:51:48;4.18;;;3.38;;
5823;SDS011;2938;52.254;12.988;2022-10-17T07:54:14;5.45;;;3.88;;
5823;SDS011;2938;52.254;12.988;2022-10-17T07:56:39;6.97;;;3.58;;
5823;SDS011;2938;52.254;12.988;2022-10-17T07:59:04;6.32;;;3.97;;
5823;SDS011;2938;52.254;12.988;2022-10-17T08:01:30;5.05;;;3.10;;
5823;SDS011;2938;52.254;12.988;2022-10-17T08:03:55;11.23;;;5.20;;
5823;SDS011;2938;52.254;12.988;2022-10-17T08:06:20;3.58;;;3.28;;
5823;SDS011;2938;52.254;12.988;2022-10-17T08:08:46;4.25;;;3.67;;
5823;SDS011;2938;52.254;12.988;2022-10-17T08:11:12;10.77;;;3.38;;
5823;SDS011;2938;52.254;12.988;2022-10-17T08:13:38;11.93;;;4.07;;
5823;SDS011;2938;52.254;12.988;2022-10-17T08:16:05;6.32;;;3.45;;
5823;SDS011;2938;52.254;12.988;2022-10-17T08:18:32;11.93;;;3.50;;
5823;SDS011;2938;52.254;12.988;2022-10-17T08:20:58;5.03;;;4.15;;
5823;SDS011;2938;52.254;12.988;2022-10-17T08:23:24;5.97;;;3.25;;
5823;SDS011;2938;52.254;12.988;2022-10-17T08:25:49;7.82;;;3.20;;
5823;SDS011;2938;52.254;12.988;2022-10-17T08:28:15;5.47;;;3.92;;
5823;SDS011;2938;52.254;12.988;2022-10-17T08:30:40;8.07;;;3.38;;
5823;SDS011;2938;52.254;12.988;2022-10-17T08:33:05;6.22;;;4.18;;
5823;SDS011;2938;52.254;12.988;2022-10-17T08:35:31;6.95;;;3.45;;
5823;SDS011;2938;52.254;12.988;2022-10-17T08:37:57;6.20;;;3.28;;
5823;SDS011;2938;52.254;12.988;2022-10-17T08:40:25;4.05;;;3.75;;
5823;SDS011;2938;52.254;12.988;2022-10-17T08:45:52;5.82;;;3.50;;
5823;SDS011;2938;52.254;12.988;2022-10-17T08:48:20;4.60;;;2.55;;
5823;SDS011;2938;52.254;12.988;2022-10-17T08:50:58;9.35;;;4.60;;
5823;SDS011;2938;52.254;12.988;2022-10-17T08:56:46;8.25;;;3.17;;
5823;SDS011;2938;52.254;12.988;2022-10-17T08:59:32;9.35;;;3.50;;
5823;SDS011;2938;52.254;12.988;2022-10-17T09:02:02;4.30;;;3.22;;
5823;SDS011;2938;52.254;12.988;2022-10-17T09:04:40;4.38;;;3.70;;
5823;SDS011;2938;52.254;12.988;2022-10-17T09:07:34;9.50;;;4.45;;
5823;SDS011;2938;52.254;12.988;2022-10-17T09:12:42;9.82;;;3.17;;
5823;SDS011;2938;52.254;12.988;2022-10-17T09:18:10;4.63;;;3.10;;
5823;SDS011;2938;52.254;12.988;2022-10-17T09:21:14;3.60;;;3.22;;
5823;SDS011;2938;52.254;12.988;2022-10-17T09:23:42;6.25;;;3.63;;
5823;SDS011;2938;52.254;12.988;2022-10-17T09:26:09;8.75;;;3.20;;
5823;SDS011;2938;52.254;12.988;2022-10-17T09:28:38;5.65;;;3.38;;
5823;SDS011;2938;52.254;12.988;2022-10-17T09:33:47;4.68;;;2.97;;
5823;SDS011;2938;52.254;12.988;2022-10-17T09:36:15;8.63;;;3.17;;
5823;SDS011;2938;52.254;12.988;2022-10-17T09:38:43;8.70;;;2.97;;
5823;SDS011;2938;52.254;12.988;2022-10-17T09:41:22;7.05;;;3.17;;
5823;SDS011;2938;52.254;12.988;2022-10-17T09:43:51;3.90;;;2.40;;
5823;SDS011;2938;52.254;12.988;2022-10-17T09:46:32;4.30;;;2.55;;
5823;SDS011;2938;52.254;12.988;2022-10-17T09:49:02;3.67;;;3.30;;
5823;SDS011;2938;52.254;12.988;2022-10-17T09:51:30;7.43;;;3.78;;
5823;SDS011;2938;52.254;12.988;2022-10-17T09:53:59;7.13;;;3.22;;
5823;SDS011;2938;52.254;12.988;2022-10-17T09:56:27;9.50;;;3.10;;
5823;SDS011;2938;52.254;12.988;2022-10-17T09:58:55;3.20;;;2.88;;
5823;SDS011;2938;52.254;12.988;2022-10-17T10:01:25;6.85;;;2.92;;
5823;SDS011;2938;52.254;12.988;2022-10-17T10:06:41;8.63;;;3.47;;
5823;SDS011;2938;52.254;12.988;2022-10-17T10:09:27;7.55;;;3.53;;
5823;SDS011;2938;52.254;12.988;2022-10-17T10:11:54;3.03;;;2.75;;
5823;SDS011;2938;52.254;12.988;2022-10-17T10:14:21;8.57;;;3.15;;
5823;SDS011;2938;52.254;12.988;2022-10-17T10:16:57;7.82;;;3.25;;
5823;SDS011;2938;52.254;12.988;2022-10-17T10:19:31;6.93;;;3.40;;
5823;SDS011;2938;52.254;12.988;2022-10-17T10:22:04;9.38;;;3.47;;
5823;SDS011;2938;52.254;12.988;2022-10-17T10:24:30;7.18;;;2.90;;
5823;SDS011;2938;52.254;12.988;2022-10-17T10:26:57;3.30;;;2.90;;
5823;SDS011;2938;52.254;12.988;2022-10-17T10:34:53;4.75;;;3.35;;
5823;SDS011;2938;52.254;12.988;2022-10-17T10:37:21;6.93;;;2.88;;
5823;SDS011;2938;52.254;12.988;2022-10-17T10:39:50;5.18;;;3.58;;
5823;SDS011;2938;52.254;12.988;2022-10-17T10:42:38;4.32;;;3.10;;
5823;SDS011;2938;52.254;12.988;2022-10-17T10:45:12;12.07;;;4.53;;
5823;SDS011;2938;52.254;12.988;2022-10-17T10:47:53;32.42;;;4.20;;
5823;SDS011;2938;52.254;12.988;2022-10-17T10:50:24;4.35;;;3.03;;
5823;SDS011;2938;52.254;12.988;2022-10-17T10:53:04;4.03;;;3.58;;
5823;SDS011;2938;52.254;12.988;2022-10-17T10:55:37;6.82;;;3.30;;
5823;SDS011;2938;52.254;12.988;2022-10-17T10:58:12;9.45;;;3.00;;
5823;SDS011;2938;52.254;12.988;2022-10-17T11:00:44;18.33;;;3.45;;
5823;SDS011;2938;52.254;12.988;2022-10-17T11:03:12;6.63;;;2.72;;
5823;SDS011;2938;52.254;12.988;2022-10-17T11:05:43;7.60;;;2.85;;
5823;SDS011;2938;52.254;12.988;2022-10-17T11:08:20;3.67;;;2.80;;
5823;SDS011;2938;52.254;12.988;2022-10-17T11:13:24;6.45;;;2.92;;
5823;SDS011;2938;52.254;12.988;2022-10-17T11:19:15;4.85;;;3.17;;
5823;SDS011;2938;52.254;12.988;2022-10-17T11:22:01;6.35;;;2.70;;
5823;SDS011;2938;52.254;12.988;2022-10-17T11:24:35;3.78;;;2.80;;
5823;SDS011;2938;52.254;12.988;2022-10-17T11:27:04;3.75;;;2.85;;
5823;SDS011;2938;52.254;12.988;2022-10-17T11:29:37;7.63;;;3.45;;
5823;SDS011;2938;52.254;12.988;2022-10-17T11:32:30;5.70;;;2.63;;
5823;SDS011;2938;52.254;12.988;2022-10-17T11:35:04;3.67;;;2.72;;
5823;SDS011;2938;52.254;12.988;2022-10-17T11:37:36;4.70;;;2.90;;
5823;SDS011;2938;52.254;12.988;2022-10-17T11:40:05;5.40;;;2.80;;
5823;SDS011;2938;52.254;12.988;2022-10-17T11:42:41;11.25;;;3.58;;
5823;SDS011;2938;52.254;12.988;2022-10-17T11:45:21;9.40;;;2.88;;
5823;SDS011;2938;52.254;12.988;2022-10-17T11:47:52;4.80;;;3.00;;
5823;SDS011;2938;52.254;12.988;2022-10-17T11:50:34;19.42;;;3.85;;
5823;SDS011;2938;52.254;12.988;2022-10-17T11:53:08;7.00;;;3.25;;
5823;SDS011;2938;52.254;12.988;2022-10-17T11:55:34;9.32;;;3.90;;
5823;SDS011;2938;52.254;12.988;2022-10-17T11:58:14;21.58;;;4.32;;
5823;SDS011;2938;52.254;12.988;2022-10-17T12:09:15;4.07;;;2.85;;
5823;SDS011;2938;52.254;12.988;2022-10-17T12:11:55;3.30;;;2.95;;
5823;SDS011;2938;52.254;12.988;2022-10-17T12:17:30;16.20;;;3.83;;
5823;SDS011;2938;52.254;12.988;2022-10-17T12:23:16;7.97;;;3.20;;
5823;SDS011;2938;52.254;12.988;2022-10-17T12:28:23;9.32;;;3.95;;
5823;SDS011;2938;52.254;12.988;2022-10-17T12:30:54;3.85;;;2.65;;
5823;SDS011;2938;52.254;12.988;2022-10-17T12:33:24;6.10;;;2.95;;
5823;SDS011;2938;52.254;12.988;2022-10-17T12:38:42;4.88;;;3.38;;
5823;SDS011;2938;52.254;12.988;2022-10-17T12:41:08;4.85;;;3.63;;
5823;SDS011;2938;52.254;12.988;2022-10-17T12:43:44;6.97;;;3.53;;
5823;SDS011;2938;52.254;12.988;2022-10-17T12:46:09;8.85;;;3.38;;
5823;SDS011;2938;52.254;12.988;2022-10-17T12:51:10;5.53;;;3.03;;
5823;SDS011;2938;52.254;12.988;2022-10-17T12:53:56;5.38;;;3.13;;
5823;SDS011;2938;52.254;12.988;2022-10-17T12:56:30;11.85;;;2.15;;
5823;SDS011;2938;52.254;12.988;2022-10-17T12:58:59;9.48;;;4.00;;
5823;SDS011;2938;52.254;12.988;2022-10-17T13:01:30;12.60;;;3.30;;
5823;SDS011;2938;52.254;12.988;2022-10-17T13:03:56;8.20;;;3.28;;
5823;SDS011;2938;52.254;12.988;2022-10-17T13:06:23;3.42;;;2.65;;
5823;SDS011;2938;52.254;12.988;2022-10-17T13:11:52;11.75;;;3.33;;
5823;SDS011;2938;52.254;12.988;2022-10-17T13:14:20;5.40;;;2.88;;
5823;SDS011;2938;52.254;12.988;2022-10-17T13:19:19;5.18;;;2.88;;
5823;SDS011;2938;52.254;12.988;2022-10-17T13:21:58;10.38;;;3.70;;
5823;SDS011;2938;52.254;12.988;2022-10-17T13:26:55;5.07;;;3.22;;
5823;SDS011;2938;52.254;12.988;2022-10-17T13:29:20;3.83;;;3.22;;
5823;SDS011;2938;52.254;12.988;2022-10-17T13:31:51;10.75;;;4.30;;
5823;SDS011;2938;52.254;12.988;2022-10-17T13:34:20;13.07;;;3.17;;
5823;SDS011;2938;52.254;12.988;2022-10-17T13:36:52;2.92;;;2.55;;
5823;SDS011;2938;52.254;12.988;2022-10-17T13:39:21;13.67;;;3.60;;
5823;SDS011;2938;52.254;12.988;2022-10-17T13:41:47;3.40;;;2.65;;
5823;SDS011;2938;52.254;12.988;2022-10-17T13:44:14;9.60;;;2.80;;
5823;SDS011;2938;52.254;12.988;2022-10-17T13:46:41;9.73;;;3.00;;
5823;SDS011;2938;52.254;12.988;2022-10-17T13:51:47;4.70;;;2.55;;
5823;SDS011;2938;52.254;12.988;2022-10-17T13:54:18;15.57;;;3.17;;
5823;SDS011;2938;52.254;12.988;2022-10-17T13:57:18;5.25;;;2.97;;
5823;SDS011;2938;52.254;12.988;2022-10-17T13:59:45;7.00;;;2.95;;
5823;SDS011;2938;52.254;12.988;2022-10-17T14:02:18;6.53;;;3.22;;
5823;SDS011;2938;52.254;12.988;2022-10-17T14:04:45;13.68;;;3.67;;
5823;SDS011;2938;52.254;12.988;2022-10-17T14:07:21;8.43;;;3.30;;
5823;SDS011;2938;52.254;12.988;2022-10-17T14:09:50;10.27;;;3.40;;
5823;SDS011;2938;52.254;12.988;2022-10-17T14:12:15;14.38;;;3.25;;
5823;SDS011;2938;52.254;12.988;2022-10-17T14:14:48;7.68;;;3.10;;
5823;SDS011;2938;52.254;12.988;2022-10-17T14:17:21;6.13;;;2.22;;
5823;SDS011;2938;52.254;12.988;2022-10-17T14:19:52;5.22;;;3.08;;
5823;SDS011;2938;52.254;12.988;2022-10-17T14:24:45;9.53;;;3.37;;
5823;SDS011;2938;52.254;12.988;2022-10-17T14:29:59;14.18;;;3.03;;
5823;SDS011;2938;52.254;12.988;2022-10-17T14:32:27;11.98;;;3.53;;
5823;SDS011;2938;52.254;12.988;2022-10-17T14:34:54;13.93;;;3.67;;
5823;SDS011;2938;52.254;12.988;2022-10-17T14:39:52;12.70;;;4.32;;
5823;SDS011;2938;52.254;12.988;2022-10-17T14:42:19;18.25;;;3.72;;
5823;SDS011;2938;52.254;12.988;2022-10-17T14:44:48;11.70;;;4.28;;
5823;SDS011;2938;52.254;12.988;2022-10-17T14:47:23;11.55;;;3.58;;
5823;SDS011;2938;52.254;12.988;2022-10-17T14:49:51;10.38;;;4.10;;
5823;SDS011;2938;52.254;12.988;2022-10-17T14:52:29;5.03;;;3.28;;
5823;SDS011;2938;52.254;12.988;2022-10-17T14:54:55;9.70;;;3.22;;
5823;SDS011;2938;52.254;12.988;2022-10-17T14:57:42;10.30;;;4.32;;
5823;SDS011;2938;52.254;12.988;2022-10-17T15:00:12;11.50;;;4.88;;
5823;SDS011;2938;52.254;12.988;2022-10-17T15:02:38;10.68;;;3.45;;
5823;SDS011;2938;52.254;12.988;2022-10-17T15:05:04;8.23;;;4.55;;
5823;SDS011;2938;52.254;12.988;2022-10-17T15:07:29;9.05;;;5.45;;
5823;SDS011;2938;52.254;12.988;2022-10-17T15:09:55;7.05;;;5.80;;
5823;SDS011;2938;52.254;12.988;2022-10-17T15:12:21;17.25;;;6.20;;
5823;SDS011;2938;52.254;12.988;2022-10-17T15:14:49;14.75;;;4.93;;
5823;SDS011;2938;52.254;12.988;2022-10-17T15:17:26;9.45;;;4.40;;
5823;SDS011;2938;52.254;12.988;2022-10-17T15:19:52;10.52;;;4.45;;
5823;SDS011;2938;52.254;12.988;2022-10-17T15:22:18;7.15;;;4.13;;
5823;SDS011;2938;52.254;12.988;2022-10-17T15:24:44;23.52;;;5.43;;
5823;SDS011;2938;52.254;12.988;2022-10-17T15:27:13;13.35;;;4.55;;
5823;SDS011;2938;52.254;12.988;2022-10-17T15:29:40;25.92;;;4.65;;
5823;SDS011;2938;52.254;12.988;2022-10-17T15:32:06;10.73;;;4.70;;
5823;SDS011;2938;52.254;12.988;2022-10-17T15:34:31;7.77;;;3.53;;
5823;SDS011;2938;52.254;12.988;2022-10-17T15:36:56;7.10;;;4.00;;
5823;SDS011;2938;52.254;12.988;2022-10-17T15:39:22;4.10;;;3.22;;
5823;SDS011;2938;52.254;12.988;2022-10-17T15:41:48;11.32;;;3.28;;
5823;SDS011;2938;52.254;12.988;2022-10-17T15:44:13;7.75;;;4.07;;
5823;SDS011;2938;52.254;12.988;2022-10-17T15:46:39;15.52;;;3.22;;
5823;SDS011;2938;52.254;12.988;2022-10-17T15:49:06;10.38;;;3.58;;
5823;SDS011;2938;52.254;12.988;2022-10-17T15:51:34;5.20;;;3.33;;
5823;SDS011;2938;52.254;12.988;2022-10-17T15:53:59;10.95;;;4.05;;
5823;SDS011;2938;52.254;12.988;2022-10-17T15:56:29;13.23;;;4.10;;
5823;SDS011;2938;52.254;12.988;2022-10-17T15:58:56;9.68;;;4.07;;
5823;SDS011;2938;52.254;12.988;2022-10-17T16:01:23;12.30;;;4.55;;
5823;SDS011;2938;52.254;12.988;2022-10-17T16:03:51;10.13;;;3.63;;
5823;SDS011;2938;52.254;12.988;2022-10-17T16:06:17;6.80;;;4.07;;
5823;SDS011;2938;52.254;12.988;2022-10-17T16:08:43;9.93;;;4.35;;
5823;SDS011;2938;52.254;12.988;2022-10-17T16:11:11;11.43;;;4.28;;
5823;SDS011;2938;52.254;12.988;2022-10-17T16:13:41;11.13;;;5.25;;
5823;SDS011;2938;52.254;12.988;2022-10-17T16:16:08;8.45;;;5.65;;
5823;SDS011;2938;52.254;12.988;2022-10-17T16:18:35;9.25;;;4.10;;
5823;SDS011;2938;52.254;12.988;2022-10-17T16:21:00;10.20;;;5.47;;
5823;SDS011;2938;52.254;12.988;2022-10-17T16:23:26;10.63;;;4.85;;
5823;SDS011;2938;52.254;12.988;2022-10-17T16:25:51;9.52;;;4.75;;
5823;SDS011;2938;52.254;12.988;2022-10-17T16:28:16;10.07;;;4.47;;
5823;SDS011;2938;52.254;12.988;2022-10-17T16:30:42;6.00;;;5.05;;
5823;SDS011;2938;52.254;12.988;2022-10-17T16:33:09;13.18;;;5.97;;
5823;SDS011;2938;52.254;12.988;2022-10-17T16:35:34;7.20;;;5.03;;
5823;SDS011;2938;52.254;12.988;2022-10-17T16:37:59;12.40;;;5.63;;